sensor_id;sensor_type;location;lat;lon;timestamp;temperature;humidity
64718;DHT22;62506;46.070;14.492;2023-06-10T00:01:39;23.80;63.10
64718;DHT22;62506;46.070;14.492;2023-06-10T00:04:04;23.80;63.10
64718;DHT22;62506;46.070;14.492;2023-06-10T00:06:30;23.80;63.10
64718;DHT22;62506;46.070;14.492;2023-06-10T00:09:04;23.80;63.10
64718;DHT22;62506;46.070;14.492;2023-06-10T00:11:31;23.90;63.10
64718;DHT22;62506;46.070;14.492;2023-06-10T00:13:56;23.90;63.10
64718;DHT22;62506;46.070;14.492;2023-06-10T00:16:22;23.80;63.00
64718;DHT22;62506;46.070;14.492;2023-06-10T00:18:47;23.80;63.00
64718;DHT22;62506;46.070;14.492;2023-06-10T00:21:14;23.80;63.00
64718;DHT22;62506;46.070;14.492;2023-06-10T00:23:39;23.80;63.00
64718;DHT22;62506;46.070;14.492;2023-06-10T00:26:06;23.80;63.10
64718;DHT22;62506;46.070;14.492;2023-06-10T00:28:32;23.90;63.10
64718;DHT22;62506;46.070;14.492;2023-06-10T00:30:57;23.80;63.10
64718;DHT22;62506;46.070;14.492;2023-06-10T00:33:23;23.90;63.10
64718;DHT22;62506;46.070;14.492;2023-06-10T00:35:48;23.90;63.10
64718;DHT22;62506;46.070;14.492;2023-06-10T00:38:14;23.90;63.10
64718;DHT22;62506;46.070;14.492;2023-06-10T00:40:40;23.90;63.10
64718;DHT22;62506;46.070;14.492;2023-06-10T00:43:09;23.90;63.20
64718;DHT22;62506;46.070;14.492;2023-06-10T00:45:34;23.90;63.20
64718;DHT22;62506;46.070;14.492;2023-06-10T00:48:00;23.90;63.10
64718;DHT22;62506;46.070;14.492;2023-06-10T00:50:26;23.90;63.10
64718;DHT22;62506;46.070;14.492;2023-06-10T00:52:52;23.90;63.10
64718;DHT22;62506;46.070;14.492;2023-06-10T00:55:18;23.90;63.20
64718;DHT22;62506;46.070;14.492;2023-06-10T00:57:47;23.90;63.10
64718;DHT22;62506;46.070;14.492;2023-06-10T01:00:16;23.90;63.10
64718;DHT22;62506;46.070;14.492;2023-06-10T01:02:42;23.80;63.10
64718;DHT22;62506;46.070;14.492;2023-06-10T01:05:08;23.90;63.10
64718;DHT22;62506;46.070;14.492;2023-06-10T01:10:09;23.90;63.30
64718;DHT22;62506;46.070;14.492;2023-06-10T01:15:21;23.80;63.20
64718;DHT22;62506;46.070;14.492;2023-06-10T01:17:57;23.80;63.30
64718;DHT22;62506;46.070;14.492;2023-06-10T01:20:23;23.80;63.30
64718;DHT22;62506;46.070;14.492;2023-06-10T01:22:49;23.80;63.30
64718;DHT22;62506;46.070;14.492;2023-06-10T01:25:16;23.80;63.40
64718;DHT22;62506;46.070;14.492;2023-06-10T01:27:42;23.80;63.60
64718;DHT22;62506;46.070;14.492;2023-06-10T01:30:14;23.80;63.60
64718;DHT22;62506;46.070;14.492;2023-06-10T01:32:48;23.70;63.50
64718;DHT22;62506;46.070;14.492;2023-06-10T01:35:13;23.70;63.50
64718;DHT22;62506;46.070;14.492;2023-06-10T01:37:40;23.70;63.70
64718;DHT22;62506;46.070;14.492;2023-06-10T01:40:08;23.80;63.60
64718;DHT22;62506;46.070;14.492;2023-06-10T01:42:34;23.70;63.70
64718;DHT22;62506;46.070;14.492;2023-06-10T01:44:59;23.70;63.60
64718;DHT22;62506;46.070;14.492;2023-06-10T01:47:25;23.80;63.70
64718;DHT22;62506;46.070;14.492;2023-06-10T01:49:51;23.70;63.70
64718;DHT22;62506;46.070;14.492;2023-06-10T01:52:16;23.70;63.70
64718;DHT22;62506;46.070;14.492;2023-06-10T01:54:42;23.70;63.70
64718;DHT22;62506;46.070;14.492;2023-06-10T01:57:07;23.70;63.70
64718;DHT22;62506;46.070;14.492;2023-06-10T01:59:33;23.70;63.80
64718;DHT22;62506;46.070;14.492;2023-06-10T02:01:58;23.70;63.80
64718;DHT22;62506;46.070;14.492;2023-06-10T02:04:24;23.70;63.80
64718;DHT22;62506;46.070;14.492;2023-06-10T02:06:49;23.70;63.90
64718;DHT22;62506;46.070;14.492;2023-06-10T02:09:15;23.70;63.90
64718;DHT22;62506;46.070;14.492;2023-06-10T02:11:41;23.70;63.80
64718;DHT22;62506;46.070;14.492;2023-06-10T02:14:06;23.70;63.70
64718;DHT22;62506;46.070;14.492;2023-06-10T02:16:32;23.70;63.70
64718;DHT22;62506;46.070;14.492;2023-06-10T02:18:57;23.70;63.70
64718;DHT22;62506;46.070;14.492;2023-06-10T02:21:23;23.70;63.60
64718;DHT22;62506;46.070;14.492;2023-06-10T02:23:49;23.80;63.60
64718;DHT22;62506;46.070;14.492;2023-06-10T02:26:14;23.70;63.60
64718;DHT22;62506;46.070;14.492;2023-06-10T02:28:43;23.70;63.60
64718;DHT22;62506;46.070;14.492;2023-06-10T02:31:09;23.70;63.60
64718;DHT22;62506;46.070;14.492;2023-06-10T02:33:34;23.70;63.50
64718;DHT22;62506;46.070;14.492;2023-06-10T02:36:00;23.70;63.50
64718;DHT22;62506;46.070;14.492;2023-06-10T02:38:25;23.70;63.60
64718;DHT22;62506;46.070;14.492;2023-06-10T02:40:51;23.70;63.50
64718;DHT22;62506;46.070;14.492;2023-06-10T02:43:16;23.80;63.60
64718;DHT22;62506;46.070;14.492;2023-06-10T02:45:42;23.70;63.60
64718;DHT22;62506;46.070;14.492;2023-06-10T02:48:08;23.70;63.70
64718;DHT22;62506;46.070;14.492;2023-06-10T02:50:33;23.70;63.70
64718;DHT22;62506;46.070;14.492;2023-06-10T02:52:59;23.70;63.70
64718;DHT22;62506;46.070;14.492;2023-06-10T02:55:24;23.70;63.70
64718;DHT22;62506;46.070;14.492;2023-06-10T02:57:51;23.70;63.80
64718;DHT22;62506;46.070;14.492;2023-06-10T03:00:17;23.70;63.80
64718;DHT22;62506;46.070;14.492;2023-06-10T03:02:45;23.70;63.80
64718;DHT22;62506;46.070;14.492;2023-06-10T03:05:11;23.70;63.80
64718;DHT22;62506;46.070;14.492;2023-06-10T03:07:38;23.70;63.90
64718;DHT22;62506;46.070;14.492;2023-06-10T03:10:05;23.70;63.90
64718;DHT22;62506;46.070;14.492;2023-06-10T03:12:30;23.70;64.00
64718;DHT22;62506;46.070;14.492;2023-06-10T03:14:56;23.70;63.90
64718;DHT22;62506;46.070;14.492;2023-06-10T03:17:21;23.70;64.00
64718;DHT22;62506;46.070;14.492;2023-06-10T03:19:47;23.70;64.00
64718;DHT22;62506;46.070;14.492;2023-06-10T03:22:13;23.70;63.80
64718;DHT22;62506;46.070;14.492;2023-06-10T03:24:39;23.70;63.80
64718;DHT22;62506;46.070;14.492;2023-06-10T03:27:12;23.70;63.70
64718;DHT22;62506;46.070;14.492;2023-06-10T03:29:38;23.70;63.90
64718;DHT22;62506;46.070;14.492;2023-06-10T03:32:04;23.70;64.20
64718;DHT22;62506;46.070;14.492;2023-06-10T03:34:30;23.70;64.40
64718;DHT22;62506;46.070;14.492;2023-06-10T03:36:55;23.80;64.50
64718;DHT22;62506;46.070;14.492;2023-06-10T03:39:21;23.70;64.50
64718;DHT22;62506;46.070;14.492;2023-06-10T03:41:48;23.70;64.60
64718;DHT22;62506;46.070;14.492;2023-06-10T03:44:14;23.70;64.60
64718;DHT22;62506;46.070;14.492;2023-06-10T03:46:40;23.70;64.80
64718;DHT22;62506;46.070;14.492;2023-06-10T03:49:05;23.80;64.80
64718;DHT22;62506;46.070;14.492;2023-06-10T03:51:31;23.80;64.80
64718;DHT22;62506;46.070;14.492;2023-06-10T03:53:56;23.80;64.80
64718;DHT22;62506;46.070;14.492;2023-06-10T03:56:22;23.80;64.80
64718;DHT22;62506;46.070;14.492;2023-06-10T03:58:47;23.80;64.80
64718;DHT22;62506;46.070;14.492;2023-06-10T04:01:13;23.80;64.80
64718;DHT22;62506;46.070;14.492;2023-06-10T04:03:38;23.80;64.70
64718;DHT22;62506;46.070;14.492;2023-06-10T04:06:04;23.80;64.60
64718;DHT22;62506;46.070;14.492;2023-06-10T04:08:30;23.80;64.60
64718;DHT22;62506;46.070;14.492;2023-06-10T04:10:56;23.80;64.60
64718;DHT22;62506;46.070;14.492;2023-06-10T04:13:23;23.80;64.60
64718;DHT22;62506;46.070;14.492;2023-06-10T04:15:48;23.80;64.60
64718;DHT22;62506;46.070;14.492;2023-06-10T04:18:14;23.80;64.60
64718;DHT22;62506;46.070;14.492;2023-06-10T04:20:40;23.80;64.60
64718;DHT22;62506;46.070;14.492;2023-06-10T04:23:05;23.80;64.60
64718;DHT22;62506;46.070;14.492;2023-06-10T04:25:31;23.80;64.60
64718;DHT22;62506;46.070;14.492;2023-06-10T04:27:56;23.80;64.60
64718;DHT22;62506;46.070;14.492;2023-06-10T04:30:22;23.80;64.50
64718;DHT22;62506;46.070;14.492;2023-06-10T04:32:47;23.80;64.60
64718;DHT22;62506;46.070;14.492;2023-06-10T04:35:13;23.80;64.60
64718;DHT22;62506;46.070;14.492;2023-06-10T04:37:39;23.80;65.60
64718;DHT22;62506;46.070;14.492;2023-06-10T04:40:05;23.80;64.60
64718;DHT22;62506;46.070;14.492;2023-06-10T04:42:31;23.70;64.70
64718;DHT22;62506;46.070;14.492;2023-06-10T04:44:56;23.70;64.70
64718;DHT22;62506;46.070;14.492;2023-06-10T04:47:22;23.70;64.70
64718;DHT22;62506;46.070;14.492;2023-06-10T04:49:48;23.70;64.70
64718;DHT22;62506;46.070;14.492;2023-06-10T04:52:13;23.70;64.70
64718;DHT22;62506;46.070;14.492;2023-06-10T04:54:39;23.70;64.80
64718;DHT22;62506;46.070;14.492;2023-06-10T04:57:05;23.70;64.80
64718;DHT22;62506;46.070;14.492;2023-06-10T04:59:33;23.70;64.80
64718;DHT22;62506;46.070;14.492;2023-06-10T05:01:58;23.70;64.90
64718;DHT22;62506;46.070;14.492;2023-06-10T05:04:24;23.70;64.80
64718;DHT22;62506;46.070;14.492;2023-06-10T05:06:49;23.70;64.90
64718;DHT22;62506;46.070;14.492;2023-06-10T05:09:15;23.70;64.90
64718;DHT22;62506;46.070;14.492;2023-06-10T05:11:40;23.70;64.70
64718;DHT22;62506;46.070;14.492;2023-06-10T05:14:06;23.70;64.70
64718;DHT22;62506;46.070;14.492;2023-06-10T05:16:31;23.70;64.70
64718;DHT22;62506;46.070;14.492;2023-06-10T05:18:57;23.70;64.70
64718;DHT22;62506;46.070;14.492;2023-06-10T05:21:22;23.70;64.70
64718;DHT22;62506;46.070;14.492;2023-06-10T05:23:48;23.70;64.70
64718;DHT22;62506;46.070;14.492;2023-06-10T05:31:24;23.80;64.60
64718;DHT22;62506;46.070;14.492;2023-06-10T05:33:50;23.80;64.80
64718;DHT22;62506;46.070;14.492;2023-06-10T05:36:17;23.90;64.30
64718;DHT22;62506;46.070;14.492;2023-06-10T05:43:55;24.00;64.30
64718;DHT22;62506;46.070;14.492;2023-06-10T05:56:42;24.10;63.90
64718;DHT22;62506;46.070;14.492;2023-06-10T05:59:08;24.20;63.90
64718;DHT22;62506;46.070;14.492;2023-06-10T06:06:44;24.60;64.60
64718;DHT22;62506;46.070;14.492;2023-06-10T06:09:10;24.20;63.30
64718;DHT22;62506;46.070;14.492;2023-06-10T06:11:35;24.20;61.90
64718;DHT22;62506;46.070;14.492;2023-06-10T06:14:01;24.00;59.50
64718;DHT22;62506;46.070;14.492;2023-06-10T06:16:26;23.80;59.40
64718;DHT22;62506;46.070;14.492;2023-06-10T06:18:52;23.70;59.60
64718;DHT22;62506;46.070;14.492;2023-06-10T06:21:17;23.50;59.30
64718;DHT22;62506;46.070;14.492;2023-06-10T06:23:43;23.40;59.30
64718;DHT22;62506;46.070;14.492;2023-06-10T06:26:08;23.50;59.60
64718;DHT22;62506;46.070;14.492;2023-06-10T06:28:34;23.40;59.70
64718;DHT22;62506;46.070;14.492;2023-06-10T06:30:59;23.40;59.80
64718;DHT22;62506;46.070;14.492;2023-06-10T06:33:29;23.40;59.80
64718;DHT22;62506;46.070;14.492;2023-06-10T06:35:55;23.30;60.10
64718;DHT22;62506;46.070;14.492;2023-06-10T07:18:48;23.70;60.00
64718;DHT22;62506;46.070;14.492;2023-06-10T07:21:13;23.70;60.00
64718;DHT22;62506;46.070;14.492;2023-06-10T07:23:42;23.70;58.50
64718;DHT22;62506;46.070;14.492;2023-06-10T07:26:08;23.60;58.60
64718;DHT22;62506;46.070;14.492;2023-06-10T07:28:36;23.50;59.80
64718;DHT22;62506;46.070;14.492;2023-06-10T07:31:02;23.50;66.10
64718;DHT22;62506;46.070;14.492;2023-06-10T07:33:27;23.40;66.90
64718;DHT22;62506;46.070;14.492;2023-06-10T07:35:55;23.40;68.30
64718;DHT22;62506;46.070;14.492;2023-06-10T07:38:21;23.30;69.90
64718;DHT22;62506;46.070;14.492;2023-06-10T07:40:46;23.20;70.30
64718;DHT22;62506;46.070;14.492;2023-06-10T07:43:12;23.10;59.50
64718;DHT22;62506;46.070;14.492;2023-06-10T07:45:39;23.00;60.00
64718;DHT22;62506;46.070;14.492;2023-06-10T07:48:05;23.00;60.00
64718;DHT22;62506;46.070;14.492;2023-06-10T07:50:30;23.00;60.10
64718;DHT22;62506;46.070;14.492;2023-06-10T07:52:56;23.00;60.20
64718;DHT22;62506;46.070;14.492;2023-06-10T07:55:21;22.90;71.90
64718;DHT22;62506;46.070;14.492;2023-06-10T07:57:47;22.90;70.70
64718;DHT22;62506;46.070;14.492;2023-06-10T08:00:12;22.70;71.40
64718;DHT22;62506;46.070;14.492;2023-06-10T08:02:38;22.70;61.20
64718;DHT22;62506;46.070;14.492;2023-06-10T08:05:04;22.60;61.20
64718;DHT22;62506;46.070;14.492;2023-06-10T08:07:30;22.60;61.90
64718;DHT22;62506;46.070;14.492;2023-06-10T08:09:56;22.60;62.20
64718;DHT22;62506;46.070;14.492;2023-06-10T08:12:21;22.60;73.60
64718;DHT22;62506;46.070;14.492;2023-06-10T08:14:47;22.70;73.70
64718;DHT22;62506;46.070;14.492;2023-06-10T08:17:12;22.80;72.80
64718;DHT22;62506;46.070;14.492;2023-06-10T08:19:38;22.90;72.70
64718;DHT22;62506;46.070;14.492;2023-06-10T08:22:03;23.00;72.40
64718;DHT22;62506;46.070;14.492;2023-06-10T08:24:29;23.00;71.70
64718;DHT22;62506;46.070;14.492;2023-06-10T08:26:54;23.00;71.70
64718;DHT22;62506;46.070;14.492;2023-06-10T08:29:22;23.00;71.30
64718;DHT22;62506;46.070;14.492;2023-06-10T08:31:48;23.00;71.30
64718;DHT22;62506;46.070;14.492;2023-06-10T08:34:14;23.00;71.50
64718;DHT22;62506;46.070;14.492;2023-06-10T08:36:39;23.20;60.60
64718;DHT22;62506;46.070;14.492;2023-06-10T08:39:05;23.30;60.20
64718;DHT22;62506;46.070;14.492;2023-06-10T08:41:30;23.40;59.70
64718;DHT22;62506;46.070;14.492;2023-06-10T08:44:02;23.50;59.60
64718;DHT22;62506;46.070;14.492;2023-06-10T08:46:29;23.50;59.50
64718;DHT22;62506;46.070;14.492;2023-06-10T08:48:56;23.60;59.80
64718;DHT22;62506;46.070;14.492;2023-06-10T08:51:25;23.60;59.70
64718;DHT22;62506;46.070;14.492;2023-06-10T08:54:00;23.60;59.80
64718;DHT22;62506;46.070;14.492;2023-06-10T08:56:29;23.70;59.60
64718;DHT22;62506;46.070;14.492;2023-06-10T08:58:55;23.80;60.50
64718;DHT22;62506;46.070;14.492;2023-06-10T09:01:22;23.80;59.50
64718;DHT22;62506;46.070;14.492;2023-06-10T09:03:48;23.70;60.20
64718;DHT22;62506;46.070;14.492;2023-06-10T09:06:14;23.80;65.90
64718;DHT22;62506;46.070;14.492;2023-06-10T09:08:40;23.80;68.20
64718;DHT22;62506;46.070;14.492;2023-06-10T09:11:06;23.70;68.10
64718;DHT22;62506;46.070;14.492;2023-06-10T09:13:32;23.80;68.00
64718;DHT22;62506;46.070;14.492;2023-06-10T09:15:57;23.80;68.30
64718;DHT22;62506;46.070;14.492;2023-06-10T09:18:26;23.80;68.60
64718;DHT22;62506;46.070;14.492;2023-06-10T09:20:52;23.80;68.60
64718;DHT22;62506;46.070;14.492;2023-06-10T09:23:17;23.80;68.20
64718;DHT22;62506;46.070;14.492;2023-06-10T09:25:43;23.90;68.30
64718;DHT22;62506;46.070;14.492;2023-06-10T09:28:15;23.90;68.30
64718;DHT22;62506;46.070;14.492;2023-06-10T09:30:40;23.90;67.50
64718;DHT22;62506;46.070;14.492;2023-06-10T09:33:10;23.90;67.80
64718;DHT22;62506;46.070;14.492;2023-06-10T09:35:36;24.00;67.60
64718;DHT22;62506;46.070;14.492;2023-06-10T09:38:01;24.00;67.00
64718;DHT22;62506;46.070;14.492;2023-06-10T09:40:27;24.00;58.80
64718;DHT22;62506;46.070;14.492;2023-06-10T09:42:54;24.10;65.80
64718;DHT22;62506;46.070;14.492;2023-06-10T09:45:20;24.00;60.20
64718;DHT22;62506;46.070;14.492;2023-06-10T09:47:52;24.00;60.10
64718;DHT22;62506;46.070;14.492;2023-06-10T09:50:18;24.00;60.90
64718;DHT22;62506;46.070;14.492;2023-06-10T09:52:45;24.00;60.20
64718;DHT22;62506;46.070;14.492;2023-06-10T09:55:10;24.00;59.80
64718;DHT22;62506;46.070;14.492;2023-06-10T09:57:36;24.00;59.60
64718;DHT22;62506;46.070;14.492;2023-06-10T10:00:05;24.10;59.80
64718;DHT22;62506;46.070;14.492;2023-06-10T10:02:31;24.00;59.90
64718;DHT22;62506;46.070;14.492;2023-06-10T10:05:06;24.00;59.60
64718;DHT22;62506;46.070;14.492;2023-06-10T10:07:31;24.00;59.60
64718;DHT22;62506;46.070;14.492;2023-06-10T10:09:57;24.00;59.90
64718;DHT22;62506;46.070;14.492;2023-06-10T10:12:23;24.00;60.00
64718;DHT22;62506;46.070;14.492;2023-06-10T10:14:48;24.00;59.90
64718;DHT22;62506;46.070;14.492;2023-06-10T10:17:15;24.20;61.00
64718;DHT22;62506;46.070;14.492;2023-06-10T10:19:46;24.30;60.00
64718;DHT22;62506;46.070;14.492;2023-06-10T10:22:15;24.20;60.00
64718;DHT22;62506;46.070;14.492;2023-06-10T10:24:51;24.20;60.00
64718;DHT22;62506;46.070;14.492;2023-06-10T10:27:20;24.20;60.00
64718;DHT22;62506;46.070;14.492;2023-06-10T10:29:47;24.10;61.10
64718;DHT22;62506;46.070;14.492;2023-06-10T10:32:13;24.20;60.00
64718;DHT22;62506;46.070;14.492;2023-06-10T10:37:05;24.20;59.80
64718;DHT22;62506;46.070;14.492;2023-06-10T10:39:32;24.20;59.70
64718;DHT22;62506;46.070;14.492;2023-06-10T10:41:58;24.20;59.50
64718;DHT22;62506;46.070;14.492;2023-06-10T10:44:24;24.10;59.50
64718;DHT22;62506;46.070;14.492;2023-06-10T10:46:50;24.10;59.60
64718;DHT22;62506;46.070;14.492;2023-06-10T10:49:16;24.10;59.90
64718;DHT22;62506;46.070;14.492;2023-06-10T10:51:55;24.10;60.20
64718;DHT22;62506;46.070;14.492;2023-06-10T10:54:28;24.10;60.30
64718;DHT22;62506;46.070;14.492;2023-06-10T10:57:11;24.10;60.40
64718;DHT22;62506;46.070;14.492;2023-06-10T11:02:17;24.10;60.60
64718;DHT22;62506;46.070;14.492;2023-06-10T11:04:46;24.20;61.50
64718;DHT22;62506;46.070;14.492;2023-06-10T11:07:12;24.20;60.60
64718;DHT22;62506;46.070;14.492;2023-06-10T11:09:57;24.20;60.50
64718;DHT22;62506;46.070;14.492;2023-06-10T11:12:22;24.30;60.60
64718;DHT22;62506;46.070;14.492;2023-06-10T11:14:58;24.30;60.30
64718;DHT22;62506;46.070;14.492;2023-06-10T11:17:24;24.30;60.50
64718;DHT22;62506;46.070;14.492;2023-06-10T11:19:49;24.30;60.50
64718;DHT22;62506;46.070;14.492;2023-06-10T11:22:18;24.30;60.20
64718;DHT22;62506;46.070;14.492;2023-06-10T11:24:48;24.30;61.10
64718;DHT22;62506;46.070;14.492;2023-06-10T11:27:18;24.30;61.00
64718;DHT22;62506;46.070;14.492;2023-06-10T11:32:32;24.50;60.80
64718;DHT22;62506;46.070;14.492;2023-06-10T11:34:58;24.40;60.70
64718;DHT22;62506;46.070;14.492;2023-06-10T11:40:02;24.50;60.80
64718;DHT22;62506;46.070;14.492;2023-06-10T11:42:28;24.50;60.80
64718;DHT22;62506;46.070;14.492;2023-06-10T11:44:54;24.50;61.00
64718;DHT22;62506;46.070;14.492;2023-06-10T11:47:20;24.50;61.30
64718;DHT22;62506;46.070;14.492;2023-06-10T11:49:55;24.50;61.50
64718;DHT22;62506;46.070;14.492;2023-06-10T11:52:28;24.40;61.50
64718;DHT22;62506;46.070;14.492;2023-06-10T11:54:54;24.50;61.90
64718;DHT22;62506;46.070;14.492;2023-06-10T11:57:20;24.50;61.80
64718;DHT22;62506;46.070;14.492;2023-06-10T12:02:21;24.50;62.00
64718;DHT22;62506;46.070;14.492;2023-06-10T12:04:47;24.50;62.00
64718;DHT22;62506;46.070;14.492;2023-06-10T12:07:19;24.40;62.00
64718;DHT22;62506;46.070;14.492;2023-06-10T12:09:45;24.50;62.10
64718;DHT22;62506;46.070;14.492;2023-06-10T12:12:10;24.40;62.10
64718;DHT22;62506;46.070;14.492;2023-06-10T12:17:20;24.40;62.10
64718;DHT22;62506;46.070;14.492;2023-06-10T12:19:47;24.50;62.20
64718;DHT22;62506;46.070;14.492;2023-06-10T12:22:13;24.50;62.20
64718;DHT22;62506;46.070;14.492;2023-06-10T12:25:12;24.50;62.30
64718;DHT22;62506;46.070;14.492;2023-06-10T12:27:32;24.50;62.40
64718;DHT22;62506;46.070;14.492;2023-06-10T12:29:59;24.50;62.60
64718;DHT22;62506;46.070;14.492;2023-06-10T12:35:07;24.40;62.70
64718;DHT22;62506;46.070;14.492;2023-06-10T12:37:33;24.40;62.60
64718;DHT22;62506;46.070;14.492;2023-06-10T12:40:00;24.50;62.50
64718;DHT22;62506;46.070;14.492;2023-06-10T12:42:25;24.50;62.70
64718;DHT22;62506;46.070;14.492;2023-06-10T12:44:54;24.50;62.80
64718;DHT22;62506;46.070;14.492;2023-06-10T12:47:28;24.50;62.80
64718;DHT22;62506;46.070;14.492;2023-06-10T12:49:54;24.50;62.80
64718;DHT22;62506;46.070;14.492;2023-06-10T12:52:19;24.40;62.70
64718;DHT22;62506;46.070;14.492;2023-06-10T12:54:45;24.40;62.20
64718;DHT22;62506;46.070;14.492;2023-06-10T12:57:13;24.40;62.40
64718;DHT22;62506;46.070;14.492;2023-06-10T12:59:39;24.40;62.90
64718;DHT22;62506;46.070;14.492;2023-06-10T13:02:05;24.30;63.00
64718;DHT22;62506;46.070;14.492;2023-06-10T13:04:33;24.30;63.20
64718;DHT22;62506;46.070;14.492;2023-06-10T13:06:59;24.30;63.30
64718;DHT22;62506;46.070;14.492;2023-06-10T13:09:24;24.30;63.30
64718;DHT22;62506;46.070;14.492;2023-06-10T13:11:51;24.20;63.20
64718;DHT22;62506;46.070;14.492;2023-06-10T13:14:18;24.30;63.30
64718;DHT22;62506;46.070;14.492;2023-06-10T13:16:43;24.20;63.20
64718;DHT22;62506;46.070;14.492;2023-06-10T13:19:13;24.20;63.20
64718;DHT22;62506;46.070;14.492;2023-06-10T13:21:38;24.20;63.20
64718;DHT22;62506;46.070;14.492;2023-06-10T13:24:04;24.20;61.50
64718;DHT22;62506;46.070;14.492;2023-06-10T13:26:29;24.20;61.20
64718;DHT22;62506;46.070;14.492;2023-06-10T13:28:55;24.10;61.70
64718;DHT22;62506;46.070;14.492;2023-06-10T13:31:28;24.10;61.80
64718;DHT22;62506;46.070;14.492;2023-06-10T13:33:53;24.20;62.30
64718;DHT22;62506;46.070;14.492;2023-06-10T13:36:21;24.10;62.30
64718;DHT22;62506;46.070;14.492;2023-06-10T13:38:46;24.10;62.50
64718;DHT22;62506;46.070;14.492;2023-06-10T13:41:13;24.10;62.60
64718;DHT22;62506;46.070;14.492;2023-06-10T13:43:38;24.20;62.80
64718;DHT22;62506;46.070;14.492;2023-06-10T13:46:04;24.20;62.80
64718;DHT22;62506;46.070;14.492;2023-06-10T13:48:30;24.20;62.20
64718;DHT22;62506;46.070;14.492;2023-06-10T13:50:56;24.20;61.70
64718;DHT22;62506;46.070;14.492;2023-06-10T13:53:21;24.10;61.50
64718;DHT22;62506;46.070;14.492;2023-06-10T13:55:47;24.20;62.20
64718;DHT22;62506;46.070;14.492;2023-06-10T13:58:13;24.20;62.20
64718;DHT22;62506;46.070;14.492;2023-06-10T14:00:38;24.20;62.00
64718;DHT22;62506;46.070;14.492;2023-06-10T14:03:04;24.20;61.80
64718;DHT22;62506;46.070;14.492;2023-06-10T14:05:29;24.20;61.70
64718;DHT22;62506;46.070;14.492;2023-06-10T14:07:55;24.10;61.40
64718;DHT22;62506;46.070;14.492;2023-06-10T14:10:21;24.20;61.70
64718;DHT22;62506;46.070;14.492;2023-06-10T14:12:46;24.20;61.30
64718;DHT22;62506;46.070;14.492;2023-06-10T14:15:12;24.20;61.40
64718;DHT22;62506;46.070;14.492;2023-06-10T14:17:37;24.10;61.10
64718;DHT22;62506;46.070;14.492;2023-06-10T14:20:03;24.10;61.10
64718;DHT22;62506;46.070;14.492;2023-06-10T14:22:29;24.20;61.20
64718;DHT22;62506;46.070;14.492;2023-06-10T14:24:55;24.10;60.80
64718;DHT22;62506;46.070;14.492;2023-06-10T14:27:20;24.10;60.60
64718;DHT22;62506;46.070;14.492;2023-06-10T14:29:46;24.10;60.60
64718;DHT22;62506;46.070;14.492;2023-06-10T14:32:11;24.10;61.10
64718;DHT22;62506;46.070;14.492;2023-06-10T14:34:37;24.10;61.50
64718;DHT22;62506;46.070;14.492;2023-06-10T14:37:04;24.10;62.10
64718;DHT22;62506;46.070;14.492;2023-06-10T14:39:32;24.10;62.30
64718;DHT22;62506;46.070;14.492;2023-06-10T14:41:58;24.20;62.60
64718;DHT22;62506;46.070;14.492;2023-06-10T14:44:23;24.10;63.30
64718;DHT22;62506;46.070;14.492;2023-06-10T14:46:49;24.10;62.20
64718;DHT22;62506;46.070;14.492;2023-06-10T14:49:14;24.10;62.10
64718;DHT22;62506;46.070;14.492;2023-06-10T14:51:40;24.20;61.70
64718;DHT22;62506;46.070;14.492;2023-06-10T14:54:05;24.10;61.60
64718;DHT22;62506;46.070;14.492;2023-06-10T14:56:31;24.10;61.30
64718;DHT22;62506;46.070;14.492;2023-06-10T14:58:56;24.10;61.30
64718;DHT22;62506;46.070;14.492;2023-06-10T15:01:21;24.10;61.30
64718;DHT22;62506;46.070;14.492;2023-06-10T15:03:47;24.10;61.60
64718;DHT22;62506;46.070;14.492;2023-06-10T15:06:13;24.10;61.50
64718;DHT22;62506;46.070;14.492;2023-06-10T15:08:38;24.10;61.30
64718;DHT22;62506;46.070;14.492;2023-06-10T15:11:04;24.10;60.90
64718;DHT22;62506;46.070;14.492;2023-06-10T15:13:29;24.10;61.10
64718;DHT22;62506;46.070;14.492;2023-06-10T15:15:55;24.10;61.20
64718;DHT22;62506;46.070;14.492;2023-06-10T15:18:21;24.10;61.10
64718;DHT22;62506;46.070;14.492;2023-06-10T15:20:46;24.10;60.70
64718;DHT22;62506;46.070;14.492;2023-06-10T15:23:12;24.10;60.20
64718;DHT22;62506;46.070;14.492;2023-06-10T15:25:37;24.10;60.10
64718;DHT22;62506;46.070;14.492;2023-06-10T15:28:05;24.10;60.10
64718;DHT22;62506;46.070;14.492;2023-06-10T15:30:31;24.10;60.20
64718;DHT22;62506;46.070;14.492;2023-06-10T15:32:56;24.10;59.90
64718;DHT22;62506;46.070;14.492;2023-06-10T15:35:23;24.10;59.90
64718;DHT22;62506;46.070;14.492;2023-06-10T15:37:48;24.10;59.90
64718;DHT22;62506;46.070;14.492;2023-06-10T15:40:13;24.10;59.80
64718;DHT22;62506;46.070;14.492;2023-06-10T15:42:39;24.10;59.60
64718;DHT22;62506;46.070;14.492;2023-06-10T15:45:05;24.10;59.60
64718;DHT22;62506;46.070;14.492;2023-06-10T15:47:30;24.10;59.70
64718;DHT22;62506;46.070;14.492;2023-06-10T15:49:56;24.10;60.00
64718;DHT22;62506;46.070;14.492;2023-06-10T15:52:21;24.20;60.20
64718;DHT22;62506;46.070;14.492;2023-06-10T15:54:47;24.20;60.00
64718;DHT22;62506;46.070;14.492;2023-06-10T15:57:12;24.10;60.30
64718;DHT22;62506;46.070;14.492;2023-06-10T15:59:39;24.10;60.50
64718;DHT22;62506;46.070;14.492;2023-06-10T16:02:04;24.10;60.50
64718;DHT22;62506;46.070;14.492;2023-06-10T16:04:30;24.10;60.60
64718;DHT22;62506;46.070;14.492;2023-06-10T16:06:56;24.10;60.40
64718;DHT22;62506;46.070;14.492;2023-06-10T16:09:22;24.00;60.30
64718;DHT22;62506;46.070;14.492;2023-06-10T16:11:47;24.00;60.70
64718;DHT22;62506;46.070;14.492;2023-06-10T16:14:13;24.00;61.00
64718;DHT22;62506;46.070;14.492;2023-06-10T16:16:39;24.10;61.30
64718;DHT22;62506;46.070;14.492;2023-06-10T16:19:04;24.10;61.30
64718;DHT22;62506;46.070;14.492;2023-06-10T16:21:30;24.00;61.30
64718;DHT22;62506;46.070;14.492;2023-06-10T16:23:56;24.10;61.40
64718;DHT22;62506;46.070;14.492;2023-06-10T16:26:21;24.10;61.40
64718;DHT22;62506;46.070;14.492;2023-06-10T16:28:48;24.10;61.50
64718;DHT22;62506;46.070;14.492;2023-06-10T16:31:13;24.10;61.30
64718;DHT22;62506;46.070;14.492;2023-06-10T16:33:39;24.20;61.50
64718;DHT22;62506;46.070;14.492;2023-06-10T16:36:04;24.20;61.60
64718;DHT22;62506;46.070;14.492;2023-06-10T16:38:30;24.20;61.50
64718;DHT22;62506;46.070;14.492;2023-06-10T16:40:55;24.20;61.40